sensor_id;sensor_type;location;lat;lon;timestamp;pressure;altitude;pressure_sealevel;temperature;humidity
63115;BME280;49208;50.874;6.466;2023-04-12T06:02:43;98841.75;;;7.48;100.00
63115;BME280;49208;50.874;6.466;2023-04-12T06:05:09;98839.88;;;7.50;100.00
63115;BME280;49208;50.874;6.466;2023-04-12T06:07:36;98831.78;;;7.53;100.00
63115;BME280;49208;50.874;6.466;2023-04-12T06:10:04;98825.56;;;7.54;100.00
63115;BME280;49208;50.874;6.466;2023-04-12T06:12:30;98821.06;;;7.56;100.00
63115;BME280;49208;50.874;6.466;2023-04-12T06:14:55;98822.69;;;7.59;100.00
63115;BME280;49208;50.874;6.466;2023-04-12T06:17:21;98826.75;;;7.66;100.00
63115;BME280;49208;50.874;6.466;2023-04-12T06:19:46;98820.50;;;7.67;100.00
63115;BME280;49208;50.874;6.466;2023-04-12T06:22:11;98824.00;;;7.67;100.00
63115;BME280;49208;50.874;6.466;2023-04-12T06:24:37;98815.94;;;7.71;100.00
63115;BME280;49208;50.874;6.466;2023-04-12T06:27:02;98810.56;;;7.72;100.00
63115;BME280;49208;50.874;6.466;2023-04-12T06:29:27;98809.53;;;7.75;100.00
63115;BME280;49208;50.874;6.466;2023-04-12T06:31:53;98800.44;;;7.80;100.00
63115;BME280;49208;50.874;6.466;2023-04-12T06:34:18;98802.00;;;7.84;100.00
63115;BME280;49208;50.874;6.466;2023-04-12T06:36:43;98795.69;;;7.87;100.00
63115;BME280;49208;50.874;6.466;2023-04-12T06:39:11;98784.91;;;7.90;100.00
63115;BME280;49208;50.874;6.466;2023-04-12T06:41:37;98781.16;;;7.94;100.00
63115;BME280;49208;50.874;6.466;2023-04-12T06:44:02;98773.84;;;7.99;100.00
63115;BME280;49208;50.874;6.466;2023-04-12T06:46:28;98770.97;;;8.04;100.00
63115;BME280;49208;50.874;6.466;2023-04-12T06:48:53;98763.59;;;8.09;100.00
63115;BME280;49208;50.874;6.466;2023-04-12T06:51:19;98768.84;;;8.10;100.00
63115;BME280;49208;50.874;6.466;2023-04-12T06:53:45;98754.56;;;8.13;100.00
63115;BME280;49208;50.874;6.466;2023-04-12T06:56:10;98750.81;;;8.17;100.00
63115;BME280;49208;50.874;6.466;2023-04-12T06:58:35;98749.03;;;8.18;100.00
63115;BME280;49208;50.874;6.466;2023-04-12T07:01:08;98754.34;;;8.18;100.00
63115;BME280;49208;50.874;6.466;2023-04-12T07:03:34;98745.38;;;8.20;100.00
63115;BME280;49208;50.874;6.466;2023-04-12T07:06:00;98745.97;;;8.25;100.00
63115;BME280;49208;50.874;6.466;2023-04-12T07:08:27;98735.34;;;8.25;100.00
63115;BME280;49208;50.874;6.466;2023-04-12T07:10:56;98742.38;;;8.26;100.00
63115;BME280;49208;50.874;6.466;2023-04-12T07:13:21;98737.09;;;8.26;100.00
63115;BME280;49208;50.874;6.466;2023-04-12T07:15:50;98735.13;;;8.30;100.00
63115;BME280;49208;50.874;6.466;2023-04-12T07:18:16;98726.94;;;8.35;100.00
63115;BME280;49208;50.874;6.466;2023-04-12T07:20:42;98730.16;;;8.40;100.00
63115;BME280;49208;50.874;6.466;2023-04-12T07:23:07;98721.91;;;8.46;100.00
63115;BME280;49208;50.874;6.466;2023-04-12T07:25:36;98716.63;;;8.46;100.00
63115;BME280;49208;50.874;6.466;2023-04-12T07:28:01;98711.22;;;8.47;100.00
63115;BME280;49208;50.874;6.466;2023-04-12T07:30:27;98703.19;;;8.49;100.00
63115;BME280;49208;50.874;6.466;2023-04-12T07:32:53;98714.41;;;8.54;100.00
63115;BME280;49208;50.874;6.466;2023-04-12T07:35:19;98707.41;;;8.53;100.00
63115;BME280;49208;50.874;6.466;2023-04-12T07:37:45;98715.25;;;8.55;100.00
63115;BME280;49208;50.874;6.466;2023-04-12T07:40:10;98713.47;;;8.55;100.00
63115;BME280;49208;50.874;6.466;2023-04-12T07:42:35;98709.94;;;8.55;100.00
63115;BME280;49208;50.874;6.466;2023-04-12T07:45:01;98708.69;;;8.62;100.00
63115;BME280;49208;50.874;6.466;2023-04-12T07:47:26;98707.50;;;8.67;100.00
63115;BME280;49208;50.874;6.466;2023-04-12T07:49:52;98713.38;;;8.73;100.00
63115;BME280;49208;50.874;6.466;2023-04-12T07:52:17;98712.09;;;8.80;100.00
63115;BME280;49208;50.874;6.466;2023-04-12T07:54:42;98699.25;;;8.88;100.00
63115;BME280;49208;50.874;6.466;2023-04-12T07:57:08;98688.19;;;8.96;100.00
63115;BME280;49208;50.874;6.466;2023-04-12T07:59:34;98699.84;;;9.09;100.00
63115;BME280;49208;50.874;6.466;2023-04-12T08:01:59;98693.91;;;9.20;100.00
63115;BME280;49208;50.874;6.466;2023-04-12T08:04:25;98699.25;;;9.34;100.00
63115;BME280;49208;50.874;6.466;2023-04-12T08:06:52;98697.00;;;9.42;100.00
63115;BME280;49208;50.874;6.466;2023-04-12T08:09:18;98680.59;;;9.50;100.00
63115;BME280;49208;50.874;6.466;2023-04-12T08:11:43;98681.97;;;9.57;100.00
63115;BME280;49208;50.874;6.466;2023-04-12T08:14:08;98681.22;;;9.69;100.00
63115;BME280;49208;50.874;6.466;2023-04-12T08:16:34;98688.34;;;9.83;100.00
63115;BME280;49208;50.874;6.466;2023-04-12T08:19:00;98684.47;;;9.89;100.00
63115;BME280;49208;50.874;6.466;2023-04-12T08:21:25;98677.63;;;9.85;100.00
63115;BME280;49208;50.874;6.466;2023-04-12T08:23:52;98680.75;;;9.77;100.00
63115;BME280;49208;50.874;6.466;2023-04-12T08:26:17;98686.34;;;9.73;100.00
63115;BME280;49208;50.874;6.466;2023-04-12T08:28:43;98681.09;;;9.71;100.00
63115;BME280;49208;50.874;6.466;2023-04-12T08:31:08;98697.16;;;9.69;100.00
63115;BME280;49208;50.874;6.466;2023-04-12T08:33:34;98701.59;;;9.69;100.00
63115;BME280;49208;50.874;6.466;2023-04-12T08:36:00;98702.47;;;9.69;100.00
63115;BME280;49208;50.874;6.466;2023-04-12T08:38:26;98700.66;;;9.70;100.00
63115;BME280;49208;50.874;6.466;2023-04-12T08:40:51;98697.94;;;9.71;100.00
63115;BME280;49208;50.874;6.466;2023-04-12T08:43:17;98697.56;;;9.78;100.00
63115;BME280;49208;50.874;6.466;2023-04-12T08:45:47;98693.78;;;9.82;100.00
63115;BME280;49208;50.874;6.466;2023-04-12T08:48:13;98692.63;;;9.86;100.00
63115;BME280;49208;50.874;6.466;2023-04-12T08:50:42;98690.53;;;9.91;100.00
63115;BME280;49208;50.874;6.466;2023-04-12T08:53:09;98687.59;;;9.96;100.00
63115;BME280;49208;50.874;6.466;2023-04-12T08:55:34;98687.22;;;10.02;100.00
63115;BME280;49208;50.874;6.466;2023-04-12T08:58:02;98690.63;;;10.04;100.00
63115;BME280;49208;50.874;6.466;2023-04-12T09:00:32;98687.81;;;10.07;100.00
63115;BME280;49208;50.874;6.466;2023-04-12T09:02:58;98698.06;;;10.13;100.00
63115;BME280;49208;50.874;6.466;2023-04-12T09:05:30;98689.88;;;10.16;100.00
63115;BME280;49208;50.874;6.466;2023-04-12T09:07:56;98687.81;;;10.21;100.00
63115;BME280;49208;50.874;6.466;2023-04-12T09:10:36;98684.59;;;10.30;100.00
63115;BME280;49208;50.874;6.466;2023-04-12T09:13:05;98690.94;;;10.42;100.00
63115;BME280;49208;50.874;6.466;2023-04-12T09:15:31;98684.19;;;10.51;100.00
63115;BME280;49208;50.874;6.466;2023-04-12T09:18:08;98679.31;;;10.58;100.00
63115;BME280;49208;50.874;6.466;2023-04-12T09:20:34;98684.25;;;10.64;100.00
63115;BME280;49208;50.874;6.466;2023-04-12T09:23:11;98671.91;;;10.63;100.00
63115;BME280;49208;50.874;6.466;2023-04-12T09:25:42;98679.16;;;10.61;100.00
63115;BME280;49208;50.874;6.466;2023-04-12T09:28:25;98673.53;;;10.65;100.00
63115;BME280;49208;50.874;6.466;2023-04-12T09:30:52;98670.28;;;10.60;100.00
63115;BME280;49208;50.874;6.466;2023-04-12T09:33:20;98667.63;;;10.60;100.00
63115;BME280;49208;50.874;6.466;2023-04-12T09:35:45;98673.06;;;10.59;100.00
63115;BME280;49208;50.874;6.466;2023-04-12T09:38:11;98668.31;;;10.49;100.00
63115;BME280;49208;50.874;6.466;2023-04-12T09:40:37;98668.63;;;10.45;100.00
63115;BME280;49208;50.874;6.466;2023-04-12T09:43:03;98666.03;;;10.43;100.00
63115;BME280;49208;50.874;6.466;2023-04-12T09:45:33;98672.88;;;10.47;100.00
63115;BME280;49208;50.874;6.466;2023-04-12T09:47:59;98662.69;;;10.54;100.00
63115;BME280;49208;50.874;6.466;2023-04-12T09:50:28;98675.22;;;10.66;100.00
63115;BME280;49208;50.874;6.466;2023-04-12T09:52:58;98681.91;;;10.86;100.00
63115;BME280;49208;50.874;6.466;2023-04-12T09:55:26;98679.88;;;11.04;100.00
63115;BME280;49208;50.874;6.466;2023-04-12T09:57:52;98671.41;;;11.25;100.00
63115;BME280;49208;50.874;6.466;2023-04-12T10:00:21;98664.38;;;11.37;100.00
63115;BME280;49208;50.874;6.466;2023-04-12T10:02:49;98670.03;;;11.32;99.59
63115;BME280;49208;50.874;6.466;2023-04-12T10:05:17;98674.25;;;11.22;99.22
63115;BME280;49208;50.874;6.466;2023-04-12T10:07:43;98683.38;;;11.05;97.13
63115;BME280;49208;50.874;6.466;2023-04-12T10:10:13;98693.63;;;10.84;96.08
63115;BME280;49208;50.874;6.466;2023-04-12T10:12:41;98706.44;;;10.50;93.04
63115;BME280;49208;50.874;6.466;2023-04-12T10:15:08;98703.94;;;10.18;95.02
63115;BME280;49208;50.874;6.466;2023-04-12T10:17:50;98703.28;;;10.00;96.89
63115;BME280;49208;50.874;6.466;2023-04-12T10:20:17;98706.19;;;9.96;98.05
63115;BME280;49208;50.874;6.466;2023-04-12T10:22:48;98711.34;;;9.99;99.10
63115;BME280;49208;50.874;6.466;2023-04-12T10:25:15;98714.84;;;10.14;100.00
63115;BME280;49208;50.874;6.466;2023-04-12T10:27:43;98720.88;;;10.31;99.90
63115;BME280;49208;50.874;6.466;2023-04-12T10:30:28;98715.66;;;10.44;98.45
63115;BME280;49208;50.874;6.466;2023-04-12T10:35:53;98710.50;;;10.56;97.28
63115;BME280;49208;50.874;6.466;2023-04-12T10:38:20;98710.09;;;10.62;96.80
63115;BME280;49208;50.874;6.466;2023-04-12T10:41:20;98721.38;;;10.80;96.11
63115;BME280;49208;50.874;6.466;2023-04-12T10:43:47;98729.91;;;10.85;95.29
63115;BME280;49208;50.874;6.466;2023-04-12T10:49:10;98735.28;;;10.56;92.99
63115;BME280;49208;50.874;6.466;2023-04-12T10:51:35;98742.03;;;10.47;93.73
63115;BME280;49208;50.874;6.466;2023-04-12T10:56:37;98742.00;;;10.19;93.28
63115;BME280;49208;50.874;6.466;2023-04-12T10:59:04;98730.22;;;10.08;94.92
63115;BME280;49208;50.874;6.466;2023-04-12T11:01:30;98727.00;;;10.18;95.77
63115;BME280;49208;50.874;6.466;2023-04-12T11:06:54;98711.94;;;10.88;98.91
63115;BME280;49208;50.874;6.466;2023-04-12T11:09:26;98714.75;;;11.54;96.81
63115;BME280;49208;50.874;6.466;2023-04-12T11:14:28;98705.63;;;12.72;89.42
63115;BME280;49208;50.874;6.466;2023-04-12T11:19:33;98709.16;;;13.58;85.53
63115;BME280;49208;50.874;6.466;2023-04-12T11:21:59;98712.75;;;13.92;82.56
63115;BME280;49208;50.874;6.466;2023-04-12T11:24:26;98703.56;;;14.19;80.34
63115;BME280;49208;50.874;6.466;2023-04-12T11:26:52;98695.53;;;14.52;80.08
63115;BME280;49208;50.874;6.466;2023-04-12T11:29:27;98706.25;;;14.75;76.94
63115;BME280;49208;50.874;6.466;2023-04-12T11:31:53;98707.34;;;14.72;75.66
63115;BME280;49208;50.874;6.466;2023-04-12T11:34:20;98702.75;;;14.63;73.95
63115;BME280;49208;50.874;6.466;2023-04-12T11:36:47;98707.13;;;14.64;74.39
63115;BME280;49208;50.874;6.466;2023-04-12T11:39:12;98714.75;;;14.46;74.27
63115;BME280;49208;50.874;6.466;2023-04-12T11:41:45;98713.78;;;14.25;74.21
63115;BME280;49208;50.874;6.466;2023-04-12T11:44:12;98719.41;;;14.22;75.69
63115;BME280;49208;50.874;6.466;2023-04-12T11:46:38;98712.53;;;14.06;72.92
63115;BME280;49208;50.874;6.466;2023-04-12T11:49:03;98710.72;;;14.07;72.02
63115;BME280;49208;50.874;6.466;2023-04-12T11:51:30;98716.06;;;14.07;70.09
63115;BME280;49208;50.874;6.466;2023-04-12T11:53:56;98706.84;;;14.11;68.76
63115;BME280;49208;50.874;6.466;2023-04-12T11:56:23;98703.22;;;14.34;69.60
63115;BME280;49208;50.874;6.466;2023-04-12T11:58:49;98707.72;;;14.79;71.61
63115;BME280;49208;50.874;6.466;2023-04-12T12:01:19;98711.28;;;15.23;70.72
63115;BME280;49208;50.874;6.466;2023-04-12T12:03:45;98711.94;;;15.36;67.90
63115;BME280;49208;50.874;6.466;2023-04-12T12:06:12;98697.09;;;15.32;66.05
63115;BME280;49208;50.874;6.466;2023-04-12T12:08:38;98695.22;;;15.44;64.63
63115;BME280;49208;50.874;6.466;2023-04-12T12:11:04;98694.25;;;15.45;65.38
63115;BME280;49208;50.874;6.466;2023-04-12T12:13:47;98689.91;;;15.33;64.98
63115;BME280;49208;50.874;6.466;2023-04-12T12:16:13;98683.03;;;15.19;65.81
63115;BME280;49208;50.874;6.466;2023-04-12T12:18:42;98681.06;;;15.21;65.67
63115;BME280;49208;50.874;6.466;2023-04-12T12:21:09;98678.94;;;15.36;63.19
63115;BME280;49208;50.874;6.466;2023-04-12T12:23:35;98677.31;;;15.45;63.30
63115;BME280;49208;50.874;6.466;2023-04-12T12:26:02;98675.22;;;15.48;61.04
63115;BME280;49208;50.874;6.466;2023-04-12T12:28:28;98679.50;;;15.40;61.22
63115;BME280;49208;50.874;6.466;2023-04-12T12:30:57;98688.25;;;15.21;63.08
63115;BME280;49208;50.874;6.466;2023-04-12T12:33:23;98684.44;;;14.91;62.10
63115;BME280;49208;50.874;6.466;2023-04-12T12:35:56;98675.56;;;14.79;63.61
63115;BME280;49208;50.874;6.466;2023-04-12T12:38:22;98687.03;;;14.70;63.16
63115;BME280;49208;50.874;6.466;2023-04-12T12:40:48;98684.75;;;14.65;65.09
63115;BME280;49208;50.874;6.466;2023-04-12T12:43:18;98685.09;;;14.61;65.23
63115;BME280;49208;50.874;6.466;2023-04-12T12:45:45;98688.72;;;14.48;63.52
63115;BME280;49208;50.874;6.466;2023-04-12T12:48:10;98689.22;;;14.42;63.28
63115;BME280;49208;50.874;6.466;2023-04-12T12:50:35;98691.78;;;14.55;65.15
63115;BME280;49208;50.874;6.466;2023-04-12T12:53:02;98686.03;;;14.48;64.95
63115;BME280;49208;50.874;6.466;2023-04-12T12:55:29;98689.09;;;14.32;64.03
63115;BME280;49208;50.874;6.466;2023-04-12T12:57:55;98698.84;;;14.22;66.40
63115;BME280;49208;50.874;6.466;2023-04-12T13:00:23;98694.44;;;14.10;64.20
63115;BME280;49208;50.874;6.466;2023-04-12T13:02:49;98700.28;;;14.04;63.17
63115;BME280;49208;50.874;6.466;2023-04-12T13:05:15;98696.84;;;13.90;63.44
63115;BME280;49208;50.874;6.466;2023-04-12T13:07:41;98704.16;;;13.88;64.48
63115;BME280;49208;50.874;6.466;2023-04-12T13:10:08;98695.25;;;13.77;65.25
63115;BME280;49208;50.874;6.466;2023-04-12T13:12:34;98693.66;;;13.74;66.34
63115;BME280;49208;50.874;6.466;2023-04-12T13:15:00;98688.56;;;13.93;67.22
63115;BME280;49208;50.874;6.466;2023-04-12T13:17:27;98690.44;;;14.27;66.45
63115;BME280;49208;50.874;6.466;2023-04-12T13:19:53;98698.47;;;14.61;65.40
63115;BME280;49208;50.874;6.466;2023-04-12T13:22:18;98699.94;;;14.76;62.54
63115;BME280;49208;50.874;6.466;2023-04-12T13:24:44;98704.31;;;14.88;61.50
63115;BME280;49208;50.874;6.466;2023-04-12T13:27:11;98696.75;;;14.71;61.23
63115;BME280;49208;50.874;6.466;2023-04-12T13:29:36;98693.72;;;14.42;61.35
63115;BME280;49208;50.874;6.466;2023-04-12T13:32:02;98683.63;;;14.23;63.47
63115;BME280;49208;50.874;6.466;2023-04-12T13:34:28;98684.94;;;13.94;63.20
63115;BME280;49208;50.874;6.466;2023-04-12T13:36:53;98689.63;;;13.68;63.43
63115;BME280;49208;50.874;6.466;2023-04-12T13:39:19;98684.22;;;13.46;64.17
63115;BME280;49208;50.874;6.466;2023-04-12T13:41:45;98690.88;;;13.16;65.32
63115;BME280;49208;50.874;6.466;2023-04-12T13:44:10;98695.69;;;12.74;68.10
63115;BME280;49208;50.874;6.466;2023-04-12T13:46:36;98704.56;;;12.38;71.85
63115;BME280;49208;50.874;6.466;2023-04-12T13:49:01;98706.69;;;12.20;74.11
63115;BME280;49208;50.874;6.466;2023-04-12T13:51:27;98705.31;;;12.27;73.53
63115;BME280;49208;50.874;6.466;2023-04-12T13:53:53;98706.38;;;12.37;74.23
63115;BME280;49208;50.874;6.466;2023-04-12T13:56:18;98706.75;;;12.57;75.82
63115;BME280;49208;50.874;6.466;2023-04-12T13:58:44;98700.94;;;12.76;73.55
63115;BME280;49208;50.874;6.466;2023-04-12T14:01:10;98699.03;;;13.02;73.15
63115;BME280;49208;50.874;6.466;2023-04-12T14:03:35;98696.25;;;13.27;73.59
63115;BME280;49208;50.874;6.466;2023-04-12T14:06:00;98690.41;;;13.46;72.48
63115;BME280;49208;50.874;6.466;2023-04-12T14:08:27;98700.28;;;13.57;69.12
63115;BME280;49208;50.874;6.466;2023-04-12T14:10:53;98697.88;;;13.65;69.94
63115;BME280;49208;50.874;6.466;2023-04-12T14:13:23;98703.47;;;13.62;68.92
63115;BME280;49208;50.874;6.466;2023-04-12T14:15:52;98705.38;;;13.49;68.31
63115;BME280;49208;50.874;6.466;2023-04-12T14:18:18;98700.94;;;13.37;69.69
63115;BME280;49208;50.874;6.466;2023-04-12T14:20:44;98699.25;;;12.99;69.26
63115;BME280;49208;50.874;6.466;2023-04-12T14:23:13;98689.81;;;12.82;68.76
63115;BME280;49208;50.874;6.466;2023-04-12T14:25:39;98699.25;;;12.74;71.14
63115;BME280;49208;50.874;6.466;2023-04-12T14:28:05;98698.63;;;12.71;70.30
63115;BME280;49208;50.874;6.466;2023-04-12T14:30:30;98701.34;;;12.45;71.50
63115;BME280;49208;50.874;6.466;2023-04-12T14:32:55;98703.59;;;12.13;69.21
63115;BME280;49208;50.874;6.466;2023-04-12T14:35:21;98713.59;;;11.84;69.14
63115;BME280;49208;50.874;6.466;2023-04-12T14:37:46;98722.31;;;11.60;72.87
63115;BME280;49208;50.874;6.466;2023-04-12T14:40:12;98733.00;;;11.33;77.61
63115;BME280;49208;50.874;6.466;2023-04-12T14:42:37;98741.81;;;11.21;80.73
63115;BME280;49208;50.874;6.466;2023-04-12T14:45:03;98749.53;;;11.11;80.24
63115;BME280;49208;50.874;6.466;2023-04-12T14:47:32;98755.00;;;10.95;81.18
63115;BME280;49208;50.874;6.466;2023-04-12T14:49:57;98731.88;;;10.96;82.46
63115;BME280;49208;50.874;6.466;2023-04-12T14:52:23;98710.25;;;11.15;84.76
63115;BME280;49208;50.874;6.466;2023-04-12T14:54:48;98702.03;;;11.45;83.66
63115;BME280;49208;50.874;6.466;2023-04-12T14:57:13;98715.28;;;11.85;82.75
63115;BME280;49208;50.874;6.466;2023-04-12T14:59:39;98716.09;;;12.00;81.95
63115;BME280;49208;50.874;6.466;2023-04-12T15:02:04;98709.19;;;12.10;78.71
63115;BME280;49208;50.874;6.466;2023-04-12T15:04:30;98708.41;;;12.21;76.99
63115;BME280;49208;50.874;6.466;2023-04-12T15:06:56;98710.09;;;12.22;73.59
63115;BME280;49208;50.874;6.466;2023-04-12T15:09:21;98716.19;;;12.24;74.25
63115;BME280;49208;50.874;6.466;2023-04-12T15:11:50;98720.47;;;12.13;74.24
63115;BME280;49208;50.874;6.466;2023-04-12T15:14:19;98737.13;;;11.91;72.15
63115;BME280;49208;50.874;6.466;2023-04-12T15:16:45;98736.50;;;11.73;73.00
63115;BME280;49208;50.874;6.466;2023-04-12T15:19:13;98746.75;;;11.67;73.23
63115;BME280;49208;50.874;6.466;2023-04-12T15:21:38;98747.41;;;11.70;75.28
63115;BME280;49208;50.874;6.466;2023-04-12T15:24:04;98758.81;;;11.72;74.12
63115;BME280;49208;50.874;6.466;2023-04-12T15:26:29;98765.25;;;11.56;71.72
63115;BME280;49208;50.874;6.466;2023-04-12T15:28:54;98773.81;;;11.33;71.18
63115;BME280;49208;50.874;6.466;2023-04-12T15:31:20;98785.31;;;11.07;70.09
63115;BME280;49208;50.874;6.466;2023-04-12T15:33:45;98786.31;;;10.91;72.25
63115;BME280;49208;50.874;6.466;2023-04-12T15:36:11;98798.09;;;10.73;72.54
63115;BME280;49208;50.874;6.466;2023-04-12T15:38:41;98812.56;;;10.55;73.44
63115;BME280;49208;50.874;6.466;2023-04-12T15:41:07;98822.88;;;10.30;74.39
63115;BME280;49208;50.874;6.466;2023-04-12T15:43:33;98829.19;;;10.14;76.69
63115;BME280;49208;50.874;6.466;2023-04-12T15:45:58;98837.47;;;9.93;77.98
63115;BME280;49208;50.874;6.466;2023-04-12T15:48:24;98854.50;;;9.75;79.37
63115;BME280;49208;50.874;6.466;2023-04-12T15:50:50;98868.81;;;9.56;80.98
63115;BME280;49208;50.874;6.466;2023-04-12T15:53:21;98881.00;;;9.28;81.47
63115;BME280;49208;50.874;6.466;2023-04-12T15:55:47;98876.03;;;9.06;80.80
63115;BME280;49208;50.874;6.466;2023-04-12T15:58:20;98869.16;;;8.86;81.00
63115;BME280;49208;50.874;6.466;2023-04-12T16:00:46;98853.47;;;8.82;82.17
63115;BME280;49208;50.874;6.466;2023-04-12T16:03:12;98832.88;;;9.03;84.18
63115;BME280;49208;50.874;6.466;2023-04-12T16:05:41;98815.81;;;9.39;81.68
63115;BME280;49208;50.874;6.466;2023-04-12T16:08:07;98819.03;;;9.76;81.56
63115;BME280;49208;50.874;6.466;2023-04-12T16:10:34;98811.63;;;10.11;79.73
63115;BME280;49208;50.874;6.466;2023-04-12T16:13:01;98804.47;;;10.42;77.60
63115;BME280;49208;50.874;6.466;2023-04-12T16:15:29;98802.00;;;10.53;76.71
63115;BME280;49208;50.874;6.466;2023-04-12T16:17:54;98798.50;;;10.52;76.10
63115;BME280;49208;50.874;6.466;2023-04-12T16:20:20;98800.78;;;10.44;72.62
63115;BME280;49208;50.874;6.466;2023-04-12T16:22:47;98801.91;;;10.40;74.83
63115;BME280;49208;50.874;6.466;2023-04-12T16:25:13;98809.91;;;10.24;74.44
63115;BME280;49208;50.874;6.466;2023-04-12T16:27:41;98818.09;;;10.21;74.05
63115;BME280;49208;50.874;6.466;2023-04-12T16:30:06;98824.78;;;10.12;74.45
63115;BME280;49208;50.874;6.466;2023-04-12T16:32:34;98831.81;;;9.99;75.64
63115;BME280;49208;50.874;6.466;2023-04-12T16:35:00;98828.25;;;9.84;77.52
63115;BME280;49208;50.874;6.466;2023-04-12T16:37:27;98827.00;;;9.76;76.62
63115;BME280;49208;50.874;6.466;2023-04-12T16:39:53;98825.06;;;9.63;77.43
63115;BME280;49208;50.874;6.466;2023-04-12T16:42:18;98821.00;;;9.56;77.25
63115;BME280;49208;50.874;6.466;2023-04-12T16:44:46;98817.78;;;9.51;77.42
63115;BME280;49208;50.874;6.466;2023-04-12T16:47:11;98806.47;;;9.47;77.28
63115;BME280;49208;50.874;6.466;2023-04-12T16:49:36;98809.31;;;9.44;78.82
63115;BME280;49208;50.874;6.466;2023-04-12T16:52:02;98804.09;;;9.43;79.51
63115;BME280;49208;50.874;6.466;2023-04-12T16:54:27;98805.28;;;9.37;80.49
63115;BME280;49208;50.874;6.466;2023-04-12T16:56:52;98799.97;;;9.37;80.21
63115;BME280;49208;50.874;6.466;2023-04-12T16:59:18;98808.91;;;9.36;79.47
63115;BME280;49208;50.874;6.466;2023-04-12T17:01:43;98804.25;;;9.40;78.54
63115;BME280;49208;50.874;6.466;2023-04-12T17:04:10;98815.22;;;9.34;79.75
63115;BME280;49208;50.874;6.466;2023-04-12T17:06:36;98813.44;;;9.34;81.79
63115;BME280;49208;50.874;6.466;2023-04-12T17:09:02;98814.44;;;9.31;78.83
63115;BME280;49208;50.874;6.466;2023-04-12T17:11:28;98811.91;;;9.30;78.72
63115;BME280;49208;50.874;6.466;2023-04-12T17:13:54;98811.28;;;9.25;78.77
63115;BME280;49208;50.874;6.466;2023-04-12T17:16:19;98806.25;;;9.20;79.44
63115;BME280;49208;50.874;6.466;2023-04-12T17:18:45;98816.28;;;9.15;79.35
63115;BME280;49208;50.874;6.466;2023-04-12T17:21:12;98812.84;;;9.13;79.72
63115;BME280;49208;50.874;6.466;2023-04-12T17:23:38;98801.28;;;9.14;80.38
63115;BME280;49208;50.874;6.466;2023-04-12T17:26:04;98797.69;;;9.15;79.95
63115;BME280;49208;50.874;6.466;2023-04-12T17:28:31;98790.75;;;9.13;79.91
63115;BME280;49208;50.874;6.466;2023-04-12T17:30:59;98800.78;;;9.07;80.34
63115;BME280;49208;50.874;6.466;2023-04-12T17:33:24;98797.63;;;9.01;80.38
63115;BME280;49208;50.874;6.466;2023-04-12T17:35:50;98796.31;;;8.92;81.07
63115;BME280;49208;50.874;6.466;2023-04-12T17:38:16;98803.06;;;8.82;81.30
63115;BME280;49208;50.874;6.466;2023-04-12T17:40:41;98795.88;;;8.68;82.64
63115;BME280;49208;50.874;6.466;2023-04-12T17:43:06;98794.66;;;8.58;83.04
63115;BME280;49208;50.874;6.466;2023-04-12T17:45:32;98796.09;;;8.47;82.96
63115;BME280;49208;50.874;6.466;2023-04-12T17:47:58;98794.81;;;8.37;84.86
63115;BME280;49208;50.874;6.466;2023-04-12T17:50:23;98804.13;;;8.28;85.16
63115;BME280;49208;50.874;6.466;2023-04-12T17:52:49;98801.03;;;8.20;85.46
63115;BME280;49208;50.874;6.466;2023-04-12T17:55:14;98796.03;;;8.14;85.61
63115;BME280;49208;50.874;6.466;2023-04-12T17:57:43;98796.44;;;8.06;86.38
63115;BME280;49208;50.874;6.466;2023-04-12T18:00:09;98800.34;;;7.99;87.15
63115;BME280;49208;50.874;6.466;2023-04-12T18:02:45;98792.63;;;7.95;87.49
63115;BME280;49208;50.874;6.466;2023-04-12T18:05:11;98792.72;;;7.93;88.09
63115;BME280;49208;50.874;6.466;2023-04-12T18:07:37;98802.59;;;7.89;87.77
63115;BME280;49208;50.874;6.466;2023-04-12T18:10:06;98808.69;;;7.92;87.91
63115;BME280;49208;50.874;6.466;2023-04-12T18:12:31;98810.56;;;7.89;87.97
63115;BME280;49208;50.874;6.466;2023-04-12T18:14:57;98813.19;;;7.89;88.09
63115;BME280;49208;50.874;6.466;2023-04-12T18:17:23;98822.31;;;7.84;88.26
63115;BME280;49208;50.874;6.466;2023-04-12T18:19:48;98812.72;;;7.81;88.56
63115;BME280;49208;50.874;6.466;2023-04-12T18:22:13;98820.13;;;7.75;88.39
63115;BME280;49208;50.874;6.466;2023-04-12T18:24:39;98813.28;;;7.71;88.97
63115;BME280;49208;50.874;6.466;2023-04-12T18:27:04;98813.59;;;7.64;88.82
63115;BME280;49208;50.874;6.466;2023-04-12T18:29:31;98814.75;;;7.59;88.76
63115;BME280;49208;50.874;6.466;2023-04-12T18:31:57;98816.78;;;7.54;89.70
63115;BME280;49208;50.874;6.466;2023-04-12T18:34:22;98818.69;;;7.50;90.52
63115;BME280;49208;50.874;6.466;2023-04-12T18:36:48;98822.19;;;7.51;91.29
63115;BME280;49208;50.874;6.466;2023-04-12T18:39:13;98829.53;;;7.45;90.49
63115;BME280;49208;50.874;6.466;2023-04-12T18:41:39;98833.31;;;7.40;91.33
63115;BME280;49208;50.874;6.466;2023-04-12T18:44:08;98829.28;;;7.33;91.74
63115;BME280;49208;50.874;6.466;2023-04-12T18:46:34;98825.97;;;7.27;92.25
63115;BME280;49208;50.874;6.466;2023-04-12T18:49:01;98823.56;;;7.23;92.26
63115;BME280;49208;50.874;6.466;2023-04-12T18:51:28;98819.28;;;7.20;91.38
63115;BME280;49208;50.874;6.466;2023-04-12T18:53:55;98817.53;;;7.19;91.57
63115;BME280;49208;50.874;6.466;2023-04-12T18:56:20;98814.19;;;7.16;91.03
63115;BME280;49208;50.874;6.466;2023-04-12T18:58:49;98819.69;;;7.11;90.86
63115;BME280;49208;50.874;6.466;2023-04-12T19:01:16;98823.41;;;7.07;91.31
63115;BME280;49208;50.874;6.466;2023-04-12T19:03:41;98832.59;;;7.00;90.68
63115;BME280;49208;50.874;6.466;2023-04-12T19:06:09;98842.50;;;6.95;90.65
63115;BME280;49208;50.874;6.466;2023-04-12T19:08:35;98833.78;;;6.93;90.50
63115;BME280;49208;50.874;6.466;2023-04-12T19:11:00;98844.59;;;6.88;89.59
63115;BME280;49208;50.874;6.466;2023-04-12T19:13:26;98846.50;;;6.84;89.22
63115;BME280;49208;50.874;6.466;2023-04-12T19:15:51;98846.78;;;6.78;89.26
63115;BME280;49208;50.874;6.466;2023-04-12T19:18:19;98848.84;;;6.72;89.84